Time;durP1;ratioP1;P1;durP2;ratioP2;P2;SDS_P1;SDS_P2;PMS_P1;PMS_P2;Temp;Humidity;BMP_temperature;BMP_pressure;BME280_temperature;BME280_humidity;BME280_pressure;Samples;Min_cycle;Max_cycle;Signal;HPM_P1;HPM_P2
2023/08/14 00:00:18;;;;;;;26.17;17.52;;;;;;;16.44;100.00;101468.97;5281261;28;20542;-69
2023/08/14 00:02:50;;;;;;;25.30;17.50;;;;;;;16.37;100.00;101475.91;5275374;28;20040;-69
2023/08/14 00:05:21;;;;;;;25.23;19.35;;;;;;;16.32;100.00;101476.34;5278803;28;20030;-69
2023/08/14 00:07:52;;;;;;;29.38;19.38;;;;;;;16.38;100.00;101474.94;5276412;28;20064;-68
2023/08/14 00:10:24;;;;;;;25.95;18.88;;;;;;;16.23;100.00;101471.78;5276434;28;20111;-69
2023/08/14 00:12:55;;;;;;;29.98;20.17;;;;;;;16.19;100.00;101465.81;5280377;28;20028;-68
2023/08/14 00:15:27;;;;;;;26.42;18.65;;;;;;;16.28;100.00;101474.91;5279640;28;20409;-69
2023/08/14 00:17:58;;;;;;;28.75;19.52;;;;;;;16.31;100.00;101474.63;5277058;28;20667;-68
2023/08/14 00:20:30;;;;;;;26.88;19.55;;;;;;;16.30;100.00;101474.75;5275389;28;20390;-68
2023/08/14 00:23:01;;;;;;;27.42;18.83;;;;;;;16.12;100.00;101467.34;5278461;28;20115;-69
2023/08/14 00:25:33;;;;;;;26.63;19.05;;;;;;;16.09;100.00;101464.97;5282630;28;20024;-68
2023/08/14 00:28:04;;;;;;;31.00;19.67;;;;;;;16.10;100.00;101463.13;5283532;28;20047;-68
2023/08/14 00:30:36;;;;;;;25.30;17.75;;;;;;;16.01;100.00;101462.97;5279329;28;20028;-69
2023/08/14 00:33:07;;;;;;;25.73;17.83;;;;;;;15.98;100.00;101457.84;5293506;28;20065;-69
2023/08/14 00:35:38;;;;;;;24.48;18.05;;;;;;;16.05;100.00;101459.00;5290012;28;20084;-69
2023/08/14 00:38:10;;;;;;;22.08;17.20;;;;;;;16.04;100.00;101462.66;5293234;28;20023;-68
2023/08/14 00:40:42;;;;;;;22.52;16.27;;;;;;;15.96;100.00;101464.34;5293299;28;20034;-69
2023/08/14 00:43:14;;;;;;;20.92;16.48;;;;;;;16.02;100.00;101463.81;5288043;28;20802;-69
2023/08/14 00:45:45;;;;;;;22.52;17.08;;;;;;;16.07;100.00;101465.09;5292842;28;20102;-69
2023/08/14 00:48:17;;;;;;;22.98;17.52;;;;;;;16.00;100.00;101460.41;5295613;27;20073;-69
2023/08/14 00:50:48;;;;;;;24.55;17.13;;;;;;;16.05;100.00;101464.38;5292624;28;20103;-69
2023/08/14 00:53:21;;;;;;;22.65;17.40;;;;;;;15.96;100.00;101465.19;5291062;28;20038;-69
2023/08/14 00:55:53;;;;;;;20.58;16.15;;;;;;;16.06;100.00;101460.69;5286632;28;20054;-69
2023/08/14 00:58:25;;;;;;;22.33;16.17;;;;;;;16.05;100.00;101458.13;5289628;28;20035;-68
2023/08/14 01:00:58;;;;;;;20.88;15.27;;;;;;;15.95;100.00;101452.72;5274834;28;20051;-68
2023/08/14 01:03:31;;;;;;;19.15;14.77;;;;;;;15.83;100.00;101451.13;5276475;28;20048;-68
2023/08/14 01:06:02;;;;;;;22.05;15.43;;;;;;;15.93;100.00;101454.69;5287646;28;20032;-68
2023/08/14 01:08:35;;;;;;;18.77;14.38;;;;;;;15.86;100.00;101446.34;5283541;28;20055;-68
2023/08/14 01:11:07;;;;;;;22.15;14.65;;;;;;;15.96;100.00;101443.66;5273479;28;20028;-69
2023/08/14 01:14:04;;;;;;;18.02;13.93;;;;;;;15.95;100.00;101447.34;5283290;28;20058;-69
2023/08/14 01:16:39;;;;;;;17.88;12.32;;;;;;;15.83;100.00;101441.22;5277290;28;20124;-69
2023/08/14 01:19:20;;;;;;;17.98;13.18;;;;;;;15.87;100.00;101444.50;5275226;28;21218;-68
2023/08/14 01:21:58;;;;;;;18.35;12.82;;;;;;;15.93;100.00;101443.09;5272659;28;20024;-68
2023/08/14 01:24:55;;;;;;;21.75;13.02;;;;;;;15.99;100.00;101438.03;5271360;28;20028;-71
2023/08/14 01:27:27;;;;;;;17.50;11.98;;;;;;;15.79;100.00;101436.25;5282050;28;20031;-69
2023/08/14 01:29:59;;;;;;;15.77;11.93;;;;;;;15.76;100.00;101434.72;5286343;28;20024;-68
2023/08/14 01:32:31;;;;;;;14.85;11.55;;;;;;;15.73;100.00;101424.22;5283458;28;20035;-69
2023/08/14 01:35:03;;;;;;;15.85;11.15;;;;;;;15.70;100.00;101424.44;5280017;28;20016;-69
2023/08/14 01:37:51;;;;;;;18.58;12.32;;;;;;;15.75;100.00;101427.59;5279653;28;20024;-69
2023/08/14 01:40:48;;;;;;;16.48;12.25;;;;;;;15.75;100.00;101429.47;5281098;28;20448;-69
2023/08/14 01:43:29;;;;;;;16.73;11.95;;;;;;;15.65;100.00;101421.31;5281834;28;20043;-69
2023/08/14 01:46:00;;;;;;;15.18;11.32;;;;;;;15.59;100.00;101420.03;5282335;28;20073;-68
2023/08/14 01:48:33;;;;;;;17.58;11.05;;;;;;;15.58;100.00;101415.63;5284224;28;20028;-68
2023/08/14 01:51:05;;;;;;;14.27;12.00;;;;;;;15.64;100.00;101407.00;5286621;28;20089;-70
2023/08/14 01:53:37;;;;;;;14.38;11.48;;;;;;;15.66;100.00;101404.19;5278900;28;20020;-68
2023/08/14 01:56:08;;;;;;;14.27;11.00;;;;;;;15.59;100.00;101403.88;5276065;28;20035;-68
2023/08/14 01:58:40;;;;;;;15.02;11.82;;;;;;;15.66;100.00;101406.88;5282154;28;20031;-69
2023/08/14 02:01:11;;;;;;;18.00;12.43;;;;;;;15.62;100.00;101402.75;5276987;28;20712;-68
2023/08/14 02:03:43;;;;;;;16.02;12.13;;;;;;;15.67;100.00;101405.91;5276734;28;20037;-68
2023/08/14 02:06:14;;;;;;;16.23;11.88;;;;;;;15.69;100.00;101404.75;5283212;28;20019;-69
2023/08/14 02:08:46;;;;;;;14.98;11.70;;;;;;;15.64;100.00;101403.47;5283820;28;20578;-69
2023/08/14 02:11:17;;;;;;;19.50;12.73;;;;;;;15.84;100.00;101391.81;5290262;28;20039;-68
2023/08/14 02:13:49;;;;;;;15.57;11.82;;;;;;;15.68;100.00;101391.44;5280493;28;20301;-68
2023/08/14 02:16:20;;;;;;;14.98;11.85;;;;;;;15.72;100.00;101390.16;5288020;28;20024;-68
2023/08/14 02:18:51;;;;;;;15.25;12.00;;;;;;;15.60;100.00;101389.44;5283650;28;20641;-68
2023/08/14 02:21:23;;;;;;;16.25;11.45;;;;;;;15.61;100.00;101387.59;5287358;28;20438;-69
2023/08/14 02:23:54;;;;;;;17.13;11.60;;;;;;;15.59;100.00;101386.88;5292622;28;20822;-69
2023/08/14 02:26:25;;;;;;;16.58;11.75;;;;;;;15.60;100.00;101389.44;5292998;28;20039;-68
2023/08/14 02:28:57;;;;;;;16.75;11.70;;;;;;;15.66;100.00;101385.34;5286922;28;20189;-68
2023/08/14 02:31:29;;;;;;;14.95;11.52;;;;;;;15.60;100.00;101381.38;5281031;28;20028;-69
2023/08/14 02:34:01;;;;;;;15.02;11.18;;;;;;;15.59;100.00;101376.13;5282191;28;20482;-69
2023/08/14 02:36:33;;;;;;;13.90;11.77;;;;;;;15.64;100.00;101380.09;5287705;28;20030;-68
2023/08/14 02:39:04;;;;;;;13.13;10.95;;;;;;;15.59;100.00;101376.13;5286521;28;20036;-68
2023/08/14 02:41:35;;;;;;;15.20;10.20;;;;;;;15.61;100.00;101375.00;5290480;28;20073;-68
2023/08/14 02:44:07;;;;;;;12.27;10.75;;;;;;;15.63;100.00;101375.72;5283352;28;20127;-69
2023/08/14 02:46:38;;;;;;;14.77;10.57;;;;;;;15.61;100.00;101369.63;5287325;28;20081;-69
2023/08/14 02:49:10;;;;;;;14.20;10.60;;;;;;;15.63;100.00;101364.97;5287952;28;20064;-68
2023/08/14 02:51:41;;;;;;;13.65;10.48;;;;;;;15.57;100.00;101378.09;5286327;28;20035;-68
2023/08/14 02:54:12;;;;;;;13.27;9.95;;;;;;;15.58;100.00;101374.44;5287595;28;20417;-69
2023/08/14 02:56:44;;;;;;;13.80;10.38;;;;;;;15.59;100.00;101377.00;5287642;28;21576;-69
2023/08/14 02:59:15;;;;;;;11.13;9.98;;;;;;;15.55;100.00;101369.31;5289642;28;20039;-68
2023/08/14 03:01:47;;;;;;;11.95;9.90;;;;;;;15.58;100.00;101371.75;5283555;28;20049;-68
2023/08/14 03:04:18;;;;;;;14.35;10.45;;;;;;;15.53;100.00;101368.59;5285002;28;20472;-68
2023/08/14 03:06:50;;;;;;;14.40;9.48;;;;;;;15.48;100.00;101367.19;5289889;28;20071;-68
2023/08/14 03:09:21;;;;;;;13.27;9.48;;;;;;;15.52;100.00;101359.69;5293006;28;20035;-69
2023/08/14 03:11:53;;;;;;;15.02;9.45;;;;;;;15.59;100.00;101365.34;5284684;28;20236;-68
2023/08/14 03:14:24;;;;;;;14.65;9.63;;;;;;;15.46;100.00;101365.63;5295370;28;20024;-68
2023/08/14 03:16:55;;;;;;;12.70;9.93;;;;;;;15.41;100.00;101374.09;5291977;28;20028;-68
2023/08/14 03:19:27;;;;;;;13.05;9.00;;;;;;;15.36;100.00;101370.97;5288996;28;20061;-68
2023/08/14 03:21:58;;;;;;;12.05;8.90;;;;;;;15.35;100.00;101373.78;5286540;28;20031;-68
2023/08/14 03:24:30;;;;;;;13.70;9.60;;;;;;;15.37;100.00;101372.66;5293729;28;20028;-69
2023/08/14 03:27:01;;;;;;;12.57;9.80;;;;;;;15.49;100.00;101370.72;5288395;28;20036;-68
2023/08/14 03:29:32;;;;;;;14.18;9.95;;;;;;;15.30;100.00;101371.47;5289422;28;20054;-68
2023/08/14 03:32:04;;;;;;;10.98;8.75;;;;;;;15.29;100.00;101364.44;5291877;28;20469;-68
2023/08/14 03:34:36;;;;;;;10.32;8.80;;;;;;;15.23;100.00;101359.59;5290082;28;20023;-68
2023/08/14 03:37:07;;;;;;;11.57;9.18;;;;;;;15.23;100.00;101370.34;5292196;28;20097;-68
2023/08/14 03:39:39;;;;;;;11.63;8.50;;;;;;;15.23;100.00;101362.28;5290805;28;20028;-68
2023/08/14 03:42:10;;;;;;;11.30;9.00;;;;;;;15.22;100.00;101364.09;5288180;28;20032;-68
2023/08/14 03:44:42;;;;;;;13.93;9.25;;;;;;;15.21;100.00;101370.47;5286955;28;20083;-68
2023/08/14 03:47:13;;;;;;;13.30;9.80;;;;;;;15.21;100.00;101370.47;5285976;28;20092;-68
2023/08/14 03:49:45;;;;;;;13.70;9.57;;;;;;;15.28;100.00;101368.97;5282754;28;20440;-68
2023/08/14 03:52:16;;;;;;;13.85;8.88;;;;;;;15.23;100.00;101381.94;5285083;28;20103;-68
2023/08/14 03:54:50;;;;;;;10.13;8.75;;;;;;;15.15;100.00;101372.84;5283213;28;20879;-68
2023/08/14 03:57:21;;;;;;;;;;;;;;;15.39;100.00;101376.06;5293897;28;20016;-69
2023/08/14 03:59:53;;;;;;;14.32;8.88;;;;;;;15.29;100.00;101362.59;5292275;28;19970;-69
2023/08/14 04:02:24;;;;;;;13.95;9.23;;;;;;;15.24;100.00;101369.34;5293418;28;20459;-68
2023/08/14 04:04:56;;;;;;;13.57;8.32;;;;;;;15.17;100.00;101371.72;5290236;28;20036;-68
2023/08/14 04:07:27;;;;;;;10.60;8.70;;;;;;;15.21;100.00;101369.63;5286042;28;20032;-69
2023/08/14 04:09:59;;;;;;;11.15;8.20;;;;;;;15.20;100.00;101368.75;5285100;28;20028;-69
2023/08/14 04:12:30;;;;;;;11.40;8.27;;;;;;;15.15;100.00;101362.09;5280595;28;20628;-68
2023/08/14 04:15:28;;;;;;;13.93;7.97;;;;;;;15.23;100.00;101357.75;5282323;28;20555;-68
2023/08/14 04:17:59;;;;;;;13.13;7.70;;;;;;;15.09;100.00;101355.41;5281040;28;20062;-68
2023/08/14 04:20:32;;;;;;;11.52;8.52;;;;;;;15.09;100.00;101353.59;5282697;28;20024;-68
2023/08/14 04:23:03;;;;;;;11.43;8.48;;;;;;;15.02;100.00;101349.72;5283646;28;20036;-69
2023/08/14 04:25:34;;;;;;;12.48;7.55;;;;;;;15.06;100.00;101351.16;5288881;28;20393;-69
2023/08/14 04:28:06;;;;;;;9.80;8.10;;;;;;;15.06;100.00;101350.31;5293004;28;20107;-68
2023/08/14 04:30:37;;;;;;;10.65;8.18;;;;;;;15.01;100.00;101339.97;5294914;28;20035;-68
2023/08/14 04:33:09;;;;;;;11.38;8.13;;;;;;;14.98;100.00;101340.25;5290218;28;20768;-68
2023/08/14 04:35:41;;;;;;;10.10;8.23;;;;;;;14.99;100.00;101333.88;5291086;28;20490;-68
2023/08/14 04:38:12;;;;;;;11.05;8.20;;;;;;;14.97;100.00;101341.22;5293334;28;20860;-68
2023/08/14 04:40:44;;;;;;;11.30;7.80;;;;;;;14.96;100.00;101335.97;5293956;28;20020;-68
2023/08/14 04:43:15;;;;;;;11.05;7.78;;;;;;;15.01;100.00;101331.06;5291654;28;20032;-69
2023/08/14 04:45:47;;;;;;;12.60;8.05;;;;;;;15.00;100.00;101332.06;5289525;28;20086;-68
2023/08/14 04:48:18;;;;;;;11.80;8.55;;;;;;;15.00;100.00;101332.06;5287522;28;20032;-68
2023/08/14 04:50:49;;;;;;;9.90;7.97;;;;;;;15.02;100.00;101330.91;5294783;28;20093;-68
2023/08/14 04:53:21;;;;;;;11.80;8.38;;;;;;;15.18;100.00;101330.41;5291752;28;20031;-68
2023/08/14 04:55:52;;;;;;;13.48;8.23;;;;;;;15.11;100.00;101331.97;5291543;28;20028;-69
2023/08/14 04:58:23;;;;;;;11.07;7.75;;;;;;;15.10;100.00;101319.50;5290321;28;20036;-68
2023/08/14 05:00:55;;;;;;;9.82;8.30;;;;;;;15.10;100.00;101314.13;5289208;28;20060;-68
2023/08/14 05:03:26;;;;;;;12.70;8.82;;;;;;;15.20;100.00;101306.94;5292640;28;20031;-69
2023/08/14 05:05:58;;;;;;;12.13;8.57;;;;;;;15.32;100.00;101317.59;5292073;28;20136;-68
2023/08/14 05:08:30;;;;;;;11.05;8.05;;;;;;;15.28;100.00;101317.88;5296711;28;20364;-68
2023/08/14 05:11:02;;;;;;;10.35;8.50;;;;;;;15.35;100.00;101320.84;5292866;28;20033;-68
2023/08/14 05:13:33;;;;;;;11.13;8.55;;;;;;;15.37;100.00;101307.28;5289013;28;20027;-68
2023/08/14 05:16:04;;;;;;;11.18;8.65;;;;;;;15.40;100.00;101310.56;5290637;28;20117;-68
2023/08/14 05:18:36;;;;;;;14.98;8.73;;;;;;;15.45;100.00;101304.75;5290394;28;20038;-68
2023/08/14 05:21:07;;;;;;;12.95;8.98;;;;;;;15.52;100.00;101305.91;5290028;28;20490;-68
2023/08/14 05:23:39;;;;;;;13.57;9.18;;;;;;;15.56;100.00;101304.63;5292990;28;20491;-68
2023/08/14 05:26:10;;;;;;;13.68;9.70;;;;;;;15.72;100.00;101311.31;5294812;28;20076;-68
2023/08/14 05:28:41;;;;;;;12.73;9.18;;;;;;;15.79;100.00;101313.34;5288789;28;20616;-69
2023/08/14 05:31:13;;;;;;;14.43;9.63;;;;;;;15.83;100.00;101314.75;5292715;28;20248;-69
2023/08/14 05:33:44;;;;;;;11.63;8.65;;;;;;;15.86;100.00;101317.16;5291706;28;20073;-68
2023/08/14 05:36:16;;;;;;;11.55;9.30;;;;;;;15.90;100.00;101319.56;5295651;28;20473;-68
2023/08/14 05:38:47;;;;;;;11.60;9.32;;;;;;;15.96;100.00;101319.03;5289198;28;20077;-68
2023/08/14 05:41:21;;;;;;;15.00;9.65;;;;;;;16.03;100.00;101330.91;5290546;28;20036;-68
2023/08/14 05:43:52;;;;;;;12.13;8.82;;;;;;;16.14;100.00;101332.63;5288370;28;20050;-68
2023/08/14 05:46:24;;;;;;;10.98;9.15;;;;;;;16.20;100.00;101332.03;5285189;28;21171;-68
2023/08/14 05:48:55;;;;;;;15.52;9.32;;;;;;;16.29;100.00;101327.66;5292325;28;20028;-68
2023/08/14 05:51:27;;;;;;;13.95;10.00;;;;;;;16.35;100.00;101329.78;5288035;27;20466;-68
2023/08/14 05:53:58;;;;;;;13.27;10.13;;;;;;;16.32;100.00;101336.31;5284987;28;20020;-68
2023/08/14 05:56:30;;;;;;;12.68;10.25;;;;;;;16.42;100.00;101347.91;5288128;28;20024;-68
2023/08/14 05:59:02;;;;;;;15.50;11.15;;;;;;;16.52;100.00;101352.44;5293190;28;20046;-69
2023/08/14 06:01:34;;;;;;;16.60;10.60;;;;;;;16.56;100.00;101353.84;5290886;28;20055;-68
2023/08/14 06:04:05;;;;;;;14.70;11.10;;;;;;;16.60;100.00;101348.00;5288405;28;20031;-68
2023/08/14 06:06:37;;;;;;;16.65;10.40;;;;;;;16.69;100.00;101356.25;5289312;28;20530;-68
2023/08/14 06:09:08;;;;;;;13.63;10.20;;;;;;;16.66;100.00;101355.53;5285194;28;20573;-68
2023/08/14 06:11:39;;;;;;;14.52;10.48;;;;;;;16.79;100.00;101376.78;5286238;28;20036;-69
2023/08/14 06:14:11;;;;;;;11.45;9.55;;;;;;;16.91;100.00;101371.25;5284779;28;20081;-69
2023/08/14 06:16:42;;;;;;;13.68;9.80;;;;;;;16.92;100.00;101368.41;5291093;28;20561;-68
2023/08/14 06:19:14;;;;;;;12.63;9.30;;;;;;;16.87;100.00;101356.38;5290189;28;20043;-68
2023/08/14 06:21:45;;;;;;;11.82;9.73;;;;;;;16.90;100.00;101356.09;5289478;28;20088;-69
2023/08/14 06:24:16;;;;;;;16.55;9.88;;;;;;;16.98;100.00;101356.19;5285576;28;20029;-68
2023/08/14 06:26:48;;;;;;;15.88;9.75;;;;;;;17.03;100.00;101345.84;5288659;28;20023;-68
2023/08/14 06:29:19;;;;;;;13.52;9.10;;;;;;;17.07;100.00;101340.97;5284977;28;20482;-69
2023/08/14 06:31:51;;;;;;;13.82;10.38;;;;;;;17.19;100.00;101340.66;5287833;28;20109;-68
2023/08/14 06:34:22;;;;;;;14.35;9.95;;;;;;;17.24;100.00;101332.97;5284879;28;20048;-68
2023/08/14 06:36:53;;;;;;;14.45;10.05;;;;;;;17.47;100.00;101347.88;5289830;28;20100;-68
2023/08/14 06:39:25;;;;;;;16.17;10.20;;;;;;;17.50;100.00;101337.66;5288997;28;20036;-68
2023/08/14 06:41:56;;;;;;;12.98;9.48;;;;;;;17.59;100.00;101336.75;5286768;28;20028;-68
2023/08/14 06:44:28;;;;;;;13.55;8.60;;;;;;;17.71;100.00;101334.69;5293833;28;20596;-68
2023/08/14 06:46:59;;;;;;;12.77;8.40;;;;;;;17.75;100.00;101325.28;5295118;28;20032;-69
2023/08/14 06:49:31;;;;;;;14.63;8.75;;;;;;;17.78;100.00;101319.59;5291356;28;20031;-69
2023/08/14 06:52:02;;;;;;;15.30;8.57;;;;;;;17.79;100.00;101332.06;5290771;28;20016;-68
2023/08/14 06:54:34;;;;;;;12.20;8.70;;;;;;;17.82;100.00;101328.22;5284234;28;20424;-68
2023/08/14 06:57:07;;;;;;;11.50;7.65;;;;;;;17.85;100.00;101321.69;5289615;28;20077;-69
2023/08/14 06:59:39;;;;;;;10.65;7.93;;;;;;;17.99;100.00;101319.31;5289950;28;20024;-68
2023/08/14 07:02:10;;;;;;;13.13;8.10;;;;;;;18.08;100.00;101320.22;5283602;28;20052;-68
2023/08/14 07:04:42;;;;;;;14.07;6.75;;;;;;;18.27;100.00;101323.78;5286636;28;20052;-68
2023/08/14 07:07:13;;;;;;;12.90;6.60;;;;;;;18.41;100.00;101326.78;5293416;28;20286;-68
2023/08/14 07:09:44;;;;;;;12.90;7.07;;;;;;;18.46;100.00;101318.19;5289875;28;20118;-69
2023/08/14 07:12:16;;;;;;;10.52;6.50;;;;;;;18.54;100.00;101318.25;5291039;28;20085;-69
2023/08/14 07:14:47;;;;;;;10.23;5.95;;;;;;;18.63;100.00;101326.41;5288343;28;20031;-68
2023/08/14 07:17:19;;;;;;;8.07;4.75;;;;;;;18.63;100.00;101302.94;5292896;28;20028;-68
2023/08/14 07:19:50;;;;;;;10.57;5.15;;;;;;;18.64;100.00;101299.25;5284107;28;20498;-68
2023/08/14 07:22:21;;;;;;;10.57;4.72;;;;;;;18.70;100.00;101301.28;5292431;28;20382;-69
2023/08/14 07:24:53;;;;;;;8.68;4.45;;;;;;;18.70;100.00;101313.97;5288267;28;20020;-68
2023/08/14 07:27:24;;;;;;;11.48;4.43;;;;;;;18.68;100.00;101310.56;5286103;28;20032;-69
2023/08/14 07:29:56;;;;;;;10.63;4.65;;;;;;;18.83;100.00;101308.16;5293243;28;20058;-68
2023/08/14 07:32:27;;;;;;;10.55;4.60;;;;;;;18.86;100.00;101321.34;5292067;28;20027;-69
2023/08/14 07:34:58;;;;;;;10.18;4.72;;;;;;;18.82;100.00;101323.53;5291375;28;20363;-68
2023/08/14 07:37:30;;;;;;;8.20;4.32;;;;;;;18.89;100.00;101330.00;5292382;28;20024;-68
2023/08/14 07:40:01;;;;;;;9.25;4.00;;;;;;;18.90;100.00;101325.44;5284850;28;20485;-69
2023/08/14 07:42:33;;;;;;;9.75;4.43;;;;;;;18.87;100.00;101337.44;5291121;28;20024;-69
2023/08/14 07:45:04;;;;;;;7.38;3.72;;;;;;;18.94;100.00;101324.94;5279860;28;20036;-68
2023/08/14 07:47:36;;;;;;;7.95;4.18;;;;;;;19.03;100.00;101320.44;5294318;28;20768;-69
2023/08/14 07:50:08;;;;;;;8.90;4.45;;;;;;;19.04;100.00;101322.13;5282455;28;20573;-69
2023/08/14 07:52:39;;;;;;;10.63;3.58;;;;;;;19.14;100.00;101319.31;5285550;28;20108;-69
2023/08/14 07:55:11;;;;;;;10.10;3.80;;;;;;;19.18;100.00;101312.56;5294570;28;20028;-69
2023/08/14 07:57:45;;;;;;;8.90;3.63;;;;;;;19.10;100.00;101318.78;5291105;28;20031;-69
2023/08/14 08:00:17;;;;;;;9.40;3.53;;;;;;;19.18;100.00;101320.69;5291870;28;20469;-69
2023/08/14 08:02:48;;;;;;;7.63;3.30;;;;;;;19.19;100.00;101317.81;5290097;28;20357;-69
2023/08/14 08:05:20;;;;;;;9.50;3.22;;;;;;;19.30;100.00;101321.22;5292232;28;20385;-69
2023/08/14 08:07:51;;;;;;;7.10;3.50;;;;;;;19.38;100.00;101322.09;5294244;28;20024;-69
2023/08/14 08:10:23;;;;;;;6.90;2.92;;;;;;;19.52;100.00;101311.66;5292658;28;20056;-69
2023/08/14 08:12:54;;;;;;;8.07;2.83;;;;;;;19.60;100.00;101309.00;5290667;28;20063;-69
2023/08/14 08:15:25;;;;;;;7.05;2.42;;;;;;;19.66;100.00;101302.91;5287968;28;20035;-69
2023/08/14 08:17:57;;;;;;;7.15;2.33;;;;;;;19.76;100.00;101292.78;5295553;28;20028;-69
2023/08/14 08:20:28;;;;;;;5.80;2.25;;;;;;;19.75;100.00;101293.81;5287067;28;20028;-69
2023/08/14 08:22:59;;;;;;;7.50;2.53;;;;;;;19.76;100.00;101302.78;5294413;28;20394;-69
2023/08/14 08:25:31;;;;;;;6.88;2.20;;;;;;;19.85;100.00;101298.22;5290101;28;20028;-69
2023/08/14 08:28:03;;;;;;;5.40;2.10;;;;;;;20.07;100.00;101296.72;5291372;28;20382;-69
2023/08/14 08:30:34;;;;;;;10.98;2.30;;;;;;;20.06;100.00;101282.34;5295810;28;20485;-69
2023/08/14 08:33:06;;;;;;;5.78;2.00;;;;;;;20.15;100.00;101278.63;5287138;28;20112;-69
2023/08/14 08:35:37;;;;;;;6.97;1.70;;;;;;;20.30;100.00;101283.34;5277961;28;20032;-69
2023/08/14 08:38:08;;;;;;;10.52;2.80;;;;;;;20.27;100.00;101284.53;5286806;28;20025;-69
2023/08/14 08:40:46;;;;;;;4.53;1.67;;;;;;;20.36;100.00;101279.94;5285811;28;20039;-69
2023/08/14 08:43:19;;;;;;;4.85;1.42;;;;;;;20.47;100.00;101276.03;5291946;28;20493;-69
2023/08/14 08:45:55;;;;;;;7.90;2.10;;;;;;;20.61;100.00;101283.50;5293354;28;20512;-69
2023/08/14 08:48:32;;;;;;;6.95;1.77;;;;;;;20.73;100.00;101282.13;5292186;28;20054;-69
2023/08/14 08:51:04;;;;;;;6.82;1.85;;;;;;;20.83;100.00;101271.06;5286659;28;20039;-69
2023/08/14 08:53:36;;;;;;;6.68;1.83;;;;;;;21.01;100.00;101272.72;5293868;28;20030;-69
2023/08/14 08:56:08;;;;;;;6.10;1.90;;;;;;;21.03;100.00;101267.94;5286273;28;20025;-70
2023/08/14 08:58:40;;;;;;;8.18;1.83;;;;;;;21.09;100.00;101264.53;5288027;28;20032;-69
2023/08/14 09:01:11;;;;;;;7.57;2.00;;;;;;;21.22;100.00;101264.81;5284534;28;20083;-69
2023/08/14 09:03:43;;;;;;;8.43;2.05;;;;;;;21.18;100.00;101262.63;5286019;28;20122;-70
2023/08/14 09:06:14;;;;;;;5.78;1.80;;;;;;;21.29;100.00;101265.78;5286074;28;20024;-70
2023/08/14 09:08:46;;;;;;;4.18;1.88;;;;;;;21.34;100.00;101259.81;5288107;28;20065;-70
2023/08/14 09:11:17;;;;;;;6.53;1.70;;;;;;;21.39;100.00;101271.00;5288129;28;20028;-70
2023/08/14 09:13:49;;;;;;;3.80;1.33;;;;;;;21.66;100.00;101260.69;5288318;28;20415;-69
2023/08/14 09:16:20;;;;;;;5.90;1.52;;;;;;;21.54;100.00;101262.97;5285938;28;20028;-70
2023/08/14 09:18:52;;;;;;;4.63;1.48;;;;;;;21.77;100.00;101254.00;5290434;28;20028;-70
2023/08/14 09:21:24;;;;;;;5.47;1.73;;;;;;;21.67;100.00;101260.50;5286439;28;20358;-70
2023/08/14 09:23:56;;;;;;;4.70;1.70;;;;;;;21.75;100.00;101259.59;5287245;28;20027;-70
2023/08/14 09:26:28;;;;;;;6.18;1.63;;;;;;;21.82;100.00;101262.44;5288224;28;20029;-70
2023/08/14 09:28:59;;;;;;;5.05;1.70;;;;;;;21.76;100.00;101257.72;5284595;28;20089;-70
2023/08/14 09:31:31;;;;;;;4.95;1.42;;;;;;;21.81;100.00;101268.91;5287975;28;20118;-70
2023/08/14 09:34:03;;;;;;;5.40;1.67;;;;;;;21.92;100.00;101274.75;5285723;28;20024;-70
2023/08/14 09:36:34;;;;;;;6.65;1.50;;;;;;;21.98;100.00;101280.50;5290476;28;20256;-70
2023/08/14 09:39:05;;;;;;;4.43;1.40;;;;;;;22.01;100.00;101280.94;5280124;28;20024;-70
2023/08/14 09:41:37;;;;;;;4.90;1.52;;;;;;;22.12;100.00;101272.38;5285394;28;20059;-71
2023/08/14 09:44:08;;;;;;;4.30;1.25;;;;;;;22.38;100.00;101273.03;5278120;28;20140;-71
2023/08/14 09:46:40;;;;;;;5.57;1.48;;;;;;;22.33;100.00;101280.91;5276461;28;20042;-70
2023/08/14 09:49:11;;;;;;;3.95;1.40;;;;;;;22.46;100.00;101276.50;5275828;28;20032;-71
2023/08/14 09:52:01;;;;;;;4.35;1.60;;;;;;;22.52;100.00;101274.94;5276054;28;20046;-70
2023/08/14 09:54:33;;;;;;;6.50;2.00;;;;;;;22.62;100.00;101270.06;5288550;28;20016;-71
2023/08/14 09:57:05;;;;;;;5.07;1.80;;;;;;;22.69;100.00;101262.84;5288898;28;20031;-70
2023/08/14 09:59:37;;;;;;;5.57;1.80;;;;;;;22.56;100.00;101257.22;5286652;28;20031;-70
2023/08/14 10:02:15;;;;;;;5.90;1.67;;;;;;;22.68;100.00;101254.88;5285183;28;20064;-71
2023/08/14 10:04:47;;;;;;;5.03;1.40;;;;;;;22.86;100.00;101246.34;5283168;28;20020;-71
2023/08/14 10:07:20;;;;;;;4.78;1.42;;;;;;;22.79;100.00;101248.97;5285661;28;20097;-72
2023/08/14 10:09:55;;;;;;;5.13;1.67;;;;;;;22.83;100.00;101242.09;5284450;28;21801;-71
2023/08/14 10:12:32;;;;;;;5.57;1.40;;;;;;;23.04;100.00;101243.25;5279362;28;20079;-71
2023/08/14 10:15:08;;;;;;;6.75;1.73;;;;;;;23.13;100.00;101233.09;5285223;28;20031;-72
2023/08/14 10:17:54;;;;;;;5.68;1.30;;;;;;;23.06;100.00;101227.56;5280657;28;21732;-71
2023/08/14 10:20:30;;;;;;;6.93;1.83;;;;;;;23.17;100.00;101220.81;5273726;28;20131;-70
2023/08/14 10:23:02;;;;;;;5.57;1.50;;;;;;;23.36;100.00;101212.00;5282278;28;20047;-70
2023/08/14 10:25:38;;;;;;;5.53;1.48;;;;;;;23.20;100.00;101210.34;5281771;28;20375;-70
2023/08/14 10:28:10;;;;;;;3.92;1.40;;;;;;;23.14;100.00;101199.41;5280088;28;20049;-69
2023/08/14 10:30:41;;;;;;;7.47;1.73;;;;;;;23.32;100.00;101197.09;5285756;28;20028;-70
2023/08/14 10:33:14;;;;;;;4.32;1.42;;;;;;;23.21;100.00;101195.72;5292270;28;20043;-70
2023/08/14 10:35:54;;;;;;;7.20;1.77;;;;;;;23.50;100.00;101193.91;5287683;28;20510;-70
2023/08/14 10:38:43;;;;;;;6.28;1.40;;;;;;;23.55;100.00;101196.91;5278769;28;20039;-70
2023/08/14 10:41:17;;;;;;;4.93;1.60;;;;;;;23.33;100.00;101185.16;5280347;28;20501;-71
2023/08/14 10:43:52;;;;;;;5.32;1.67;;;;;;;23.44;100.00;101191.97;5282078;28;20032;-71
2023/08/14 10:46:23;;;;;;;4.45;1.45;;;;;;;23.63;100.00;101188.59;5280201;28;20027;-70
2023/08/14 10:48:55;;;;;;;5.80;1.80;;;;;;;23.62;100.00;101188.78;5281900;28;20437;-70
2023/08/14 10:51:31;;;;;;;6.80;1.70;;;;;;;23.59;100.00;101189.19;5281079;28;20093;-70
2023/08/14 10:54:09;;;;;;;4.68;1.77;;;;;;;23.88;100.00;101196.41;5282738;28;20016;-70
2023/08/14 10:56:57;;;;;;;5.82;1.60;;;;;;;23.79;100.00;101197.56;5282540;28;20043;-70
2023/08/14 10:59:28;;;;;;;4.50;1.70;;;;;;;23.99;100.00;101190.41;5281335;28;20060;-70
2023/08/14 11:02:18;;;;;;;5.97;1.50;;;;;;;24.07;100.00;101200.34;5287812;28;20171;-71
2023/08/14 11:05:00;;;;;;;3.75;1.50;;;;;;;24.00;100.00;101193.97;5291983;28;20016;-70
2023/08/14 11:07:34;;;;;;;5.03;1.60;;;;;;;24.12;100.00;101199.72;5282842;28;20024;-70
2023/08/14 11:10:06;;;;;;;5.97;1.80;;;;;;;24.25;100.00;101197.09;5286321;28;20059;-70
2023/08/14 11:12:37;;;;;;;5.55;1.63;;;;;;;24.18;100.00;101207.09;5290264;28;20063;-71
2023/08/14 11:15:09;;;;;;;4.28;1.30;;;;;;;24.21;100.00;101206.72;5282304;28;20028;-70
2023/08/14 11:17:40;;;;;;;5.65;1.50;;;;;;;24.25;100.00;101210.72;5284133;28;20039;-71
2023/08/14 11:20:12;;;;;;;5.03;1.60;;;;;;;24.21;100.00;101196.66;5285456;28;20424;-70
2023/08/14 11:22:45;;;;;;;4.25;1.48;;;;;;;24.23;100.00;101193.72;5289520;28;20032;-70
2023/08/14 11:25:16;;;;;;;4.97;1.48;;;;;;;24.26;100.00;101198.78;5285549;28;20040;-70
2023/08/14 11:27:53;;;;;;;7.25;1.58;;;;;;;24.49;100.00;101194.94;5290849;28;20051;-70
2023/08/14 11:30:29;;;;;;;6.40;1.50;;;;;;;24.51;100.00;101187.38;5288527;28;20557;-70
2023/08/14 11:33:05;;;;;;;5.55;1.52;;;;;;;24.36;100.00;101188.38;5286784;28;20533;-70